sensor_id;sensor_type;location;lat;lon;timestamp;pressure;altitude;pressure_sealevel;temperature;humidity
23473;BME280;11909;52.516;13.564;2023-03-20T00:00:49;100923.88;;;10.82;94.52
23473;BME280;11909;52.516;13.564;2023-03-20T00:03:17;100922.53;;;10.79;94.87
23473;BME280;11909;52.516;13.564;2023-03-20T00:05:45;100922.00;;;10.77;95.13
23473;BME280;11909;52.516;13.564;2023-03-20T00:08:13;100923.34;;;10.74;95.26
23473;BME280;11909;52.516;13.564;2023-03-20T00:10:42;100923.66;;;10.73;95.49
23473;BME280;11909;52.516;13.564;2023-03-20T00:13:13;100918.69;;;10.70;95.83
23473;BME280;11909;52.516;13.564;2023-03-20T00:15:43;100918.97;;;10.68;96.18
23473;BME280;11909;52.516;13.564;2023-03-20T00:18:15;100925.84;;;10.66;96.48
23473;BME280;11909;52.516;13.564;2023-03-20T00:20:44;100921.75;;;10.63;96.45
23473;BME280;11909;52.516;13.564;2023-03-20T00:23:12;100912.41;;;10.59;96.58
23473;BME280;11909;52.516;13.564;2023-03-20T00:25:41;100927.22;;;10.58;96.78
23473;BME280;11909;52.516;13.564;2023-03-20T00:28:27;100919.28;;;10.51;96.79
23473;BME280;11909;52.516;13.564;2023-03-20T00:30:56;100924.50;;;10.47;97.18
23473;BME280;11909;52.516;13.564;2023-03-20T00:33:25;100914.63;;;10.46;97.24
23473;BME280;11909;52.516;13.564;2023-03-20T00:35:53;100917.38;;;10.41;97.57
23473;BME280;11909;52.516;13.564;2023-03-20T00:38:21;100917.91;;;10.38;97.79
23473;BME280;11909;52.516;13.564;2023-03-20T00:40:49;100910.75;;;10.32;98.00
23473;BME280;11909;52.516;13.564;2023-03-20T00:43:17;100907.75;;;10.28;98.38
23473;BME280;11909;52.516;13.564;2023-03-20T00:45:45;100906.38;;;10.21;98.54
23473;BME280;11909;52.516;13.564;2023-03-20T00:48:14;100918.69;;;10.18;98.96
23473;BME280;11909;52.516;13.564;2023-03-20T00:50:43;100902.25;;;10.13;99.12
23473;BME280;11909;52.516;13.564;2023-03-20T00:53:11;100902.78;;;10.10;99.36
23473;BME280;11909;52.516;13.564;2023-03-20T00:55:39;100897.31;;;10.10;99.51
23473;BME280;11909;52.516;13.564;2023-03-20T00:58:10;100908.00;;;10.11;99.49
23473;BME280;11909;52.516;13.564;2023-03-20T01:00:39;100902.50;;;10.06;99.42
23473;BME280;11909;52.516;13.564;2023-03-20T01:03:14;100901.97;;;9.99;99.02
23473;BME280;11909;52.516;13.564;2023-03-20T01:05:44;100901.66;;;9.90;99.37
23473;BME280;11909;52.516;13.564;2023-03-20T01:08:13;100905.50;;;9.84;99.50
23473;BME280;11909;52.516;13.564;2023-03-20T01:10:43;100906.06;;;9.81;100.00
23473;BME280;11909;52.516;13.564;2023-03-20T01:13:19;100901.63;;;9.74;100.00
23473;BME280;11909;52.516;13.564;2023-03-20T01:15:48;100898.09;;;9.74;100.00
23473;BME280;11909;52.516;13.564;2023-03-20T01:18:17;100909.03;;;9.69;100.00
23473;BME280;11909;52.516;13.564;2023-03-20T01:20:47;100907.09;;;9.64;100.00
23473;BME280;11909;52.516;13.564;2023-03-20T01:23:15;100901.88;;;9.63;100.00
23473;BME280;11909;52.516;13.564;2023-03-20T01:25:43;100910.66;;;9.54;100.00
23473;BME280;11909;52.516;13.564;2023-03-20T01:28:14;100906.50;;;9.46;100.00
23473;BME280;11909;52.516;13.564;2023-03-20T01:30:44;100910.03;;;9.42;100.00
23473;BME280;11909;52.516;13.564;2023-03-20T01:33:14;100910.00;;;9.31;100.00
23473;BME280;11909;52.516;13.564;2023-03-20T01:35:42;100904.47;;;9.21;100.00
23473;BME280;11909;52.516;13.564;2023-03-20T01:38:14;100906.66;;;9.19;100.00
23473;BME280;11909;52.516;13.564;2023-03-20T01:40:50;100908.84;;;9.17;100.00
23473;BME280;11909;52.516;13.564;2023-03-20T01:43:22;100915.16;;;9.12;100.00
23473;BME280;11909;52.516;13.564;2023-03-20T01:45:56;100919.75;;;9.07;100.00
23473;BME280;11909;52.516;13.564;2023-03-20T01:48:35;100914.53;;;9.05;100.00
23473;BME280;11909;52.516;13.564;2023-03-20T01:51:04;100908.25;;;9.04;100.00
23473;BME280;11909;52.516;13.564;2023-03-20T01:53:33;100909.91;;;9.06;100.00
23473;BME280;11909;52.516;13.564;2023-03-20T01:56:01;100918.13;;;9.06;100.00
23473;BME280;11909;52.516;13.564;2023-03-20T01:58:33;100914.81;;;9.03;100.00
23473;BME280;11909;52.516;13.564;2023-03-20T02:01:03;100909.28;;;8.93;100.00
23473;BME280;11909;52.516;13.564;2023-03-20T02:03:33;100902.16;;;8.92;100.00
23473;BME280;11909;52.516;13.564;2023-03-20T02:06:00;100896.13;;;8.90;100.00
23473;BME280;11909;52.516;13.564;2023-03-20T02:08:29;100899.41;;;8.92;100.00
23473;BME280;11909;52.516;13.564;2023-03-20T02:10:59;100909.84;;;8.95;100.00
23473;BME280;11909;52.516;13.564;2023-03-20T02:13:29;100903.28;;;8.96;100.00
23473;BME280;11909;52.516;13.564;2023-03-20T02:16:01;100912.88;;;8.99;100.00
23473;BME280;11909;52.516;13.564;2023-03-20T02:18:30;100920.00;;;9.05;100.00
23473;BME280;11909;52.516;13.564;2023-03-20T02:21:40;100922.19;;;8.98;100.00
23473;BME280;11909;52.516;13.564;2023-03-20T02:24:31;100921.59;;;8.91;100.00
23473;BME280;11909;52.516;13.564;2023-03-20T02:27:08;100919.38;;;8.87;100.00
23473;BME280;11909;52.516;13.564;2023-03-20T02:30:13;100921.53;;;8.80;100.00
23473;BME280;11909;52.516;13.564;2023-03-20T02:33:28;100910.03;;;8.78;100.00
23473;BME280;11909;52.516;13.564;2023-03-20T02:39:14;100900.22;;;8.87;100.00
23473;BME280;11909;52.516;13.564;2023-03-20T02:41:47;100906.78;;;8.86;100.00
23473;BME280;11909;52.516;13.564;2023-03-20T02:44:21;100902.38;;;8.85;100.00
23473;BME280;11909;52.516;13.564;2023-03-20T02:46:56;100905.97;;;8.86;100.00
23473;BME280;11909;52.516;13.564;2023-03-20T02:49:37;100910.59;;;8.85;100.00
23473;BME280;11909;52.516;13.564;2023-03-20T02:52:15;100904.03;;;8.86;100.00
23473;BME280;11909;52.516;13.564;2023-03-20T02:54:52;100901.28;;;8.86;100.00
23473;BME280;11909;52.516;13.564;2023-03-20T02:57:31;100906.50;;;8.83;100.00
23473;BME280;11909;52.516;13.564;2023-03-20T03:00:08;100908.69;;;8.81;100.00
23473;BME280;11909;52.516;13.564;2023-03-20T03:02:41;100921.50;;;8.75;100.00
23473;BME280;11909;52.516;13.564;2023-03-20T03:05:14;100918.44;;;8.66;100.00
23473;BME280;11909;52.516;13.564;2023-03-20T03:07:44;100917.84;;;8.59;100.00
23473;BME280;11909;52.516;13.564;2023-03-20T03:10:18;100911.25;;;8.55;100.00
23473;BME280;11909;52.516;13.564;2023-03-20T03:12:48;100912.34;;;8.54;100.00
23473;BME280;11909;52.516;13.564;2023-03-20T03:15:22;100916.72;;;8.55;100.00
23473;BME280;11909;52.516;13.564;2023-03-20T03:17:51;100922.22;;;8.60;100.00
23473;BME280;11909;52.516;13.564;2023-03-20T03:20:22;100909.09;;;8.62;100.00
23473;BME280;11909;52.516;13.564;2023-03-20T03:22:51;100911.84;;;8.62;100.00
23473;BME280;11909;52.516;13.564;2023-03-20T03:25:23;100910.75;;;8.63;100.00
23473;BME280;11909;52.516;13.564;2023-03-20T03:27:58;100917.63;;;8.66;100.00
23473;BME280;11909;52.516;13.564;2023-03-20T03:30:29;100915.94;;;8.65;100.00
23473;BME280;11909;52.516;13.564;2023-03-20T03:33:10;100915.13;;;8.64;100.00
23473;BME280;11909;52.516;13.564;2023-03-20T03:35:40;100904.44;;;8.63;100.00
23473;BME280;11909;52.516;13.564;2023-03-20T03:38:21;100914.34;;;8.69;100.00
23473;BME280;11909;52.516;13.564;2023-03-20T03:41:01;100916.56;;;8.72;100.00
23473;BME280;11909;52.516;13.564;2023-03-20T03:43:36;100916.81;;;8.75;100.00
23473;BME280;11909;52.516;13.564;2023-03-20T03:46:11;100921.25;;;8.77;100.00
23473;BME280;11909;52.516;13.564;2023-03-20T03:48:44;100918.22;;;8.78;100.00
23473;BME280;11909;52.516;13.564;2023-03-20T03:51:15;100916.56;;;8.77;100.00
23473;BME280;11909;52.516;13.564;2023-03-20T03:53:49;100919.31;;;8.77;100.00
23473;BME280;11909;52.516;13.564;2023-03-20T03:56:22;100918.22;;;8.78;100.00
23473;BME280;11909;52.516;13.564;2023-03-20T03:58:54;100920.97;;;8.78;100.00
23473;BME280;11909;52.516;13.564;2023-03-20T04:01:25;100926.44;;;8.78;100.00
23473;BME280;11909;52.516;13.564;2023-03-20T04:03:57;100924.25;;;8.80;100.00
23473;BME280;11909;52.516;13.564;2023-03-20T04:06:26;100913.88;;;8.82;100.00
23473;BME280;11909;52.516;13.564;2023-03-20T04:08:54;100919.63;;;8.81;100.00
23473;BME280;11909;52.516;13.564;2023-03-20T04:11:25;100914.41;;;8.79;100.00
23473;BME280;11909;52.516;13.564;2023-03-20T04:13:54;100916.81;;;8.75;100.00
23473;BME280;11909;52.516;13.564;2023-03-20T04:16:23;100930.78;;;8.74;100.00
23473;BME280;11909;52.516;13.564;2023-03-20T04:18:51;100930.78;;;8.74;100.00
23473;BME280;11909;52.516;13.564;2023-03-20T04:21:19;100928.88;;;8.74;100.00
23473;BME280;11909;52.516;13.564;2023-03-20T04:23:46;100938.16;;;8.73;100.00
23473;BME280;11909;52.516;13.564;2023-03-20T04:26:14;100937.59;;;8.71;100.00
23473;BME280;11909;52.516;13.564;2023-03-20T04:28:43;100943.06;;;8.71;100.00
23473;BME280;11909;52.516;13.564;2023-03-20T04:31:11;100944.44;;;8.69;100.00
23473;BME280;11909;52.516;13.564;2023-03-20T04:33:39;100943.88;;;8.67;100.00
23473;BME280;11909;52.516;13.564;2023-03-20T04:36:07;100946.03;;;8.65;100.00
23473;BME280;11909;52.516;13.564;2023-03-20T04:38:36;100949.84;;;8.64;100.00
23473;BME280;11909;52.516;13.564;2023-03-20T04:41:04;100952.91;;;8.67;100.00
23473;BME280;11909;52.516;13.564;2023-03-20T04:43:32;100949.97;;;8.79;100.00
23473;BME280;11909;52.516;13.564;2023-03-20T04:46:01;100947.81;;;8.86;100.00
23473;BME280;11909;52.516;13.564;2023-03-20T04:48:29;100953.88;;;8.88;100.00
23473;BME280;11909;52.516;13.564;2023-03-20T04:50:56;100945.69;;;8.94;100.00
23473;BME280;11909;52.516;13.564;2023-03-20T04:53:24;100953.97;;;9.04;100.00
23473;BME280;11909;52.516;13.564;2023-03-20T04:55:52;100950.13;;;9.05;100.00
23473;BME280;11909;52.516;13.564;2023-03-20T04:58:20;100945.75;;;9.09;100.00
23473;BME280;11909;52.516;13.564;2023-03-20T05:00:49;100949.34;;;9.10;100.00
23473;BME280;11909;52.516;13.564;2023-03-20T05:03:18;100953.72;;;9.11;100.00
23473;BME280;11909;52.516;13.564;2023-03-20T05:05:49;100951.00;;;9.11;100.00
23473;BME280;11909;52.516;13.564;2023-03-20T05:08:17;100953.72;;;9.11;100.00
23473;BME280;11909;52.516;13.564;2023-03-20T05:10:44;100946.06;;;9.13;100.00
23473;BME280;11909;52.516;13.564;2023-03-20T05:13:12;100948.81;;;9.13;100.00
23473;BME280;11909;52.516;13.564;2023-03-20T05:15:40;100957.59;;;9.20;100.00
23473;BME280;11909;52.516;13.564;2023-03-20T05:18:07;100963.13;;;9.25;100.00
23473;BME280;11909;52.516;13.564;2023-03-20T05:20:37;100958.75;;;9.24;100.00
23473;BME280;11909;52.516;13.564;2023-03-20T05:23:05;100958.16;;;9.22;100.00
23473;BME280;11909;52.516;13.564;2023-03-20T05:25:32;100957.88;;;9.18;100.00
23473;BME280;11909;52.516;13.564;2023-03-20T05:28:01;100957.03;;;9.18;100.00
23473;BME280;11909;52.516;13.564;2023-03-20T05:30:28;100959.56;;;9.25;100.00
23473;BME280;11909;52.516;13.564;2023-03-20T05:32:56;100958.75;;;9.29;100.00
23473;BME280;11909;52.516;13.564;2023-03-20T05:35:24;100961.50;;;9.29;100.00
23473;BME280;11909;52.516;13.564;2023-03-20T05:37:53;100957.13;;;9.28;100.00
23473;BME280;11909;52.516;13.564;2023-03-20T05:40:20;100955.47;;;9.32;100.00
23473;BME280;11909;52.516;13.564;2023-03-20T05:42:50;100958.75;;;9.29;100.00
23473;BME280;11909;52.516;13.564;2023-03-20T05:45:19;100960.69;;;9.34;100.00
23473;BME280;11909;52.516;13.564;2023-03-20T05:47:46;100958.53;;;9.36;100.00
23473;BME280;11909;52.516;13.564;2023-03-20T05:50:14;100962.34;;;9.35;100.00
23473;BME280;11909;52.516;13.564;2023-03-20T05:52:45;100958.25;;;9.38;100.00
23473;BME280;11909;52.516;13.564;2023-03-20T05:55:15;100956.03;;;9.35;100.00
23473;BME280;11909;52.516;13.564;2023-03-20T05:57:43;100961.50;;;9.35;100.00
23473;BME280;11909;52.516;13.564;2023-03-20T06:00:11;100954.13;;;9.35;100.00
23473;BME280;11909;52.516;13.564;2023-03-20T06:02:39;100953.59;;;9.38;100.00
23473;BME280;11909;52.516;13.564;2023-03-20T06:05:07;100958.78;;;9.40;100.00
23473;BME280;11909;52.516;13.564;2023-03-20T06:07:35;100961.81;;;9.38;100.00
23473;BME280;11909;52.516;13.564;2023-03-20T06:10:03;100968.94;;;9.39;100.00
23473;BME280;11909;52.516;13.564;2023-03-20T06:12:33;100964.56;;;9.43;100.00
23473;BME280;11909;52.516;13.564;2023-03-20T06:15:00;100968.13;;;9.44;100.00
23473;BME280;11909;52.516;13.564;2023-03-20T06:17:28;100967.63;;;9.47;100.00
23473;BME280;11909;52.516;13.564;2023-03-20T06:19:56;100972.56;;;9.55;100.00
23473;BME280;11909;52.516;13.564;2023-03-20T06:22:24;100979.16;;;9.59;100.00
23473;BME280;11909;52.516;13.564;2023-03-20T06:24:51;100976.16;;;9.61;100.00
23473;BME280;11909;52.516;13.564;2023-03-20T06:27:22;100983.84;;;9.64;100.00
23473;BME280;11909;52.516;13.564;2023-03-20T06:29:51;100992.63;;;9.71;100.00
23473;BME280;11909;52.516;13.564;2023-03-20T06:32:19;100994.00;;;9.69;100.00
23473;BME280;11909;52.516;13.564;2023-03-20T06:34:46;100997.81;;;9.68;100.00
23473;BME280;11909;52.516;13.564;2023-03-20T06:37:15;101000.28;;;9.69;100.00
23473;BME280;11909;52.516;13.564;2023-03-20T06:39:42;101005.22;;;9.72;100.00
23473;BME280;11909;52.516;13.564;2023-03-20T06:42:10;101019.78;;;9.73;100.00
23473;BME280;11909;52.516;13.564;2023-03-20T06:44:41;101023.63;;;9.77;100.00
23473;BME280;11909;52.516;13.564;2023-03-20T06:47:11;101021.41;;;9.69;100.00
23473;BME280;11909;52.516;13.564;2023-03-20T06:49:38;101024.69;;;9.71;100.00
23473;BME280;11909;52.516;13.564;2023-03-20T06:52:09;101018.09;;;9.67;100.00
23473;BME280;11909;52.516;13.564;2023-03-20T06:54:41;101030.66;;;9.57;100.00
23473;BME280;11909;52.516;13.564;2023-03-20T06:57:10;101024.34;;;9.57;100.00
23473;BME280;11909;52.516;13.564;2023-03-20T06:59:40;101024.84;;;9.49;100.00
23473;BME280;11909;52.516;13.564;2023-03-20T07:02:08;101021.00;;;9.44;100.00
23473;BME280;11909;52.516;13.564;2023-03-20T07:04:38;101028.38;;;9.39;100.00
23473;BME280;11909;52.516;13.564;2023-03-20T07:07:06;101029.75;;;9.36;100.00
23473;BME280;11909;52.516;13.564;2023-03-20T07:09:34;101030.84;;;9.35;100.00
23473;BME280;11909;52.516;13.564;2023-03-20T07:12:02;101027.00;;;9.36;100.00
23473;BME280;11909;52.516;13.564;2023-03-20T07:14:31;101030.22;;;9.28;100.00
23473;BME280;11909;52.516;13.564;2023-03-20T07:16:58;101050.00;;;9.35;100.00
23473;BME280;11909;52.516;13.564;2023-03-20T07:19:26;101048.84;;;9.31;100.00
23473;BME280;11909;52.516;13.564;2023-03-20T07:21:58;101042.50;;;9.20;100.00
23473;BME280;11909;52.516;13.564;2023-03-20T07:24:28;101040.28;;;9.17;100.00
23473;BME280;11909;52.516;13.564;2023-03-20T07:26:55;101046.25;;;9.09;100.00
23473;BME280;11909;52.516;13.564;2023-03-20T07:29:23;101054.72;;;9.07;100.00
23473;BME280;11909;52.516;13.564;2023-03-20T07:31:51;101052.28;;;9.11;100.00
23473;BME280;11909;52.516;13.564;2023-03-20T07:34:19;101049.63;;;9.21;100.00
23473;BME280;11909;52.516;13.564;2023-03-20T07:36:46;101049.00;;;9.09;100.00
23473;BME280;11909;52.516;13.564;2023-03-20T07:39:15;101050.09;;;9.08;100.00
23473;BME280;11909;52.516;13.564;2023-03-20T07:41:43;101044.34;;;9.09;100.00
23473;BME280;11909;52.516;13.564;2023-03-20T07:44:11;101056.66;;;9.07;100.00
23473;BME280;11909;52.516;13.564;2023-03-20T07:46:39;101052.00;;;9.07;100.00
23473;BME280;11909;52.516;13.564;2023-03-20T07:49:08;101053.94;;;9.12;100.00
23473;BME280;11909;52.516;13.564;2023-03-20T07:51:36;101060.00;;;9.19;100.00
23473;BME280;11909;52.516;13.564;2023-03-20T07:54:04;101066.03;;;9.21;100.00
23473;BME280;11909;52.516;13.564;2023-03-20T07:56:33;101072.34;;;9.16;100.00
23473;BME280;11909;52.516;13.564;2023-03-20T07:59:01;101064.38;;;9.15;100.00
23473;BME280;11909;52.516;13.564;2023-03-20T08:01:29;101074.44;;;9.09;100.00
23473;BME280;11909;52.516;13.564;2023-03-20T08:03:57;101077.69;;;9.01;100.00
23473;BME280;11909;52.516;13.564;2023-03-20T08:06:25;101067.28;;;9.03;100.00
23473;BME280;11909;52.516;13.564;2023-03-20T08:08:52;101068.84;;;8.88;100.00
23473;BME280;11909;52.516;13.564;2023-03-20T08:11:21;101073.47;;;8.88;100.00
23473;BME280;11909;52.516;13.564;2023-03-20T08:13:50;101078.09;;;8.87;100.00
23473;BME280;11909;52.516;13.564;2023-03-20T08:16:18;101080.00;;;8.82;100.00
23473;BME280;11909;52.516;13.564;2023-03-20T08:18:46;101081.69;;;8.88;100.00
23473;BME280;11909;52.516;13.564;2023-03-20T08:21:15;101083.91;;;8.91;100.00
23473;BME280;11909;52.516;13.564;2023-03-20T08:23:43;101086.94;;;8.95;100.00
23473;BME280;11909;52.516;13.564;2023-03-20T08:26:11;101083.47;;;9.04;100.00
23473;BME280;11909;52.516;13.564;2023-03-20T08:28:39;101093.91;;;9.08;100.00
23473;BME280;11909;52.516;13.564;2023-03-20T08:31:15;101091.47;;;9.11;100.00
23473;BME280;11909;52.516;13.564;2023-03-20T08:33:43;101098.09;;;9.21;100.00
23473;BME280;11909;52.516;13.564;2023-03-20T08:36:11;101117.47;;;9.14;100.00
23473;BME280;11909;52.516;13.564;2023-03-20T08:38:40;101104.38;;;9.21;100.00
23473;BME280;11909;52.516;13.564;2023-03-20T08:41:09;101114.59;;;9.31;100.00
23473;BME280;11909;52.516;13.564;2023-03-20T08:43:37;101109.09;;;9.26;100.00
23473;BME280;11909;52.516;13.564;2023-03-20T08:46:05;101115.44;;;9.31;100.00
23473;BME280;11909;52.516;13.564;2023-03-20T08:48:35;101116.22;;;9.27;100.00
23473;BME280;11909;52.516;13.564;2023-03-20T08:51:03;101116.22;;;9.27;100.00
23473;BME280;11909;52.516;13.564;2023-03-20T08:53:31;101122.53;;;9.27;100.00
23473;BME280;11909;52.516;13.564;2023-03-20T08:55:59;101113.78;;;9.30;100.00
23473;BME280;11909;52.516;13.564;2023-03-20T08:58:28;101110.75;;;9.32;100.00
23473;BME280;11909;52.516;13.564;2023-03-20T09:00:55;101101.25;;;9.45;100.00
23473;BME280;11909;52.516;13.564;2023-03-20T09:03:28;101108.81;;;9.65;100.00
23473;BME280;11909;52.516;13.564;2023-03-20T09:05:58;101104.53;;;9.90;99.19
23473;BME280;11909;52.516;13.564;2023-03-20T09:08:26;101113.72;;;10.16;95.62
23473;BME280;11909;52.516;13.564;2023-03-20T09:10:54;101123.06;;;10.31;94.46
23473;BME280;11909;52.516;13.564;2023-03-20T09:13:21;101121.97;;;10.27;92.53
23473;BME280;11909;52.516;13.564;2023-03-20T09:15:54;101123.38;;;10.40;93.15
23473;BME280;11909;52.516;13.564;2023-03-20T09:18:23;101129.66;;;10.35;90.27
23473;BME280;11909;52.516;13.564;2023-03-20T09:20:51;101132.69;;;10.33;89.59
23473;BME280;11909;52.516;13.564;2023-03-20T09:23:20;101130.75;;;10.34;90.76
23473;BME280;11909;52.516;13.564;2023-03-20T09:25:47;101138.19;;;10.39;89.16
23473;BME280;11909;52.516;13.564;2023-03-20T09:28:15;101138.72;;;10.30;88.69
23473;BME280;11909;52.516;13.564;2023-03-20T09:30:43;101135.69;;;10.27;88.78
23473;BME280;11909;52.516;13.564;2023-03-20T09:33:11;101139.50;;;10.26;88.73
23473;BME280;11909;52.516;13.564;2023-03-20T09:35:40;101145.31;;;10.29;88.05
23473;BME280;11909;52.516;13.564;2023-03-20T09:38:09;101135.69;;;10.32;87.79
23473;BME280;11909;52.516;13.564;2023-03-20T09:40:49;101136.78;;;10.36;88.15
23473;BME280;11909;52.516;13.564;2023-03-20T09:43:25;101150.59;;;10.46;86.16
23473;BME280;11909;52.516;13.564;2023-03-20T09:46:01;101144.00;;;10.47;85.59
23473;BME280;11909;52.516;13.564;2023-03-20T09:48:34;101149.25;;;10.59;84.53
23473;BME280;11909;52.516;13.564;2023-03-20T09:51:14;101148.72;;;10.68;82.80
23473;BME280;11909;52.516;13.564;2023-03-20T09:53:48;101149.25;;;10.59;83.30
23473;BME280;11909;52.516;13.564;2023-03-20T09:56:24;101136.88;;;10.57;85.68
23473;BME280;11909;52.516;13.564;2023-03-20T09:58:53;101133.34;;;10.61;85.84
23473;BME280;11909;52.516;13.564;2023-03-20T10:01:24;101133.63;;;10.65;86.53
23473;BME280;11909;52.516;13.564;2023-03-20T10:03:57;101130.34;;;10.73;87.12
23473;BME280;11909;52.516;13.564;2023-03-20T10:06:26;101148.19;;;10.92;83.57
23473;BME280;11909;52.516;13.564;2023-03-20T10:08:53;101149.88;;;10.98;81.41
23473;BME280;11909;52.516;13.564;2023-03-20T10:11:34;101150.41;;;10.89;81.84
23473;BME280;11909;52.516;13.564;2023-03-20T10:14:15;101151.75;;;10.82;82.80
23473;BME280;11909;52.516;13.564;2023-03-20T10:17:06;101155.91;;;10.84;82.34
23473;BME280;11909;52.516;13.564;2023-03-20T10:19:42;101153.69;;;10.81;81.39
23473;BME280;11909;52.516;13.564;2023-03-20T10:22:16;101149.00;;;10.82;82.26
23473;BME280;11909;52.516;13.564;2023-03-20T10:24:51;101152.31;;;10.73;83.59
23473;BME280;11909;52.516;13.564;2023-03-20T10:27:30;101144.06;;;10.73;83.00
23473;BME280;11909;52.516;13.564;2023-03-20T10:30:10;101148.72;;;10.68;83.98
23473;BME280;11909;52.516;13.564;2023-03-20T10:32:49;101141.06;;;10.75;82.85
23473;BME280;11909;52.516;13.564;2023-03-20T10:35:22;101136.38;;;10.75;83.33
23473;BME280;11909;52.516;13.564;2023-03-20T10:38:05;101141.88;;;10.81;82.75
23473;BME280;11909;52.516;13.564;2023-03-20T10:40:39;101150.66;;;10.83;81.25
23473;BME280;11909;52.516;13.564;2023-03-20T10:43:14;101144.06;;;10.79;81.20
23473;BME280;11909;52.516;13.564;2023-03-20T10:45:45;101154.50;;;10.82;80.87
23473;BME280;11909;52.516;13.564;2023-03-20T10:48:16;101147.09;;;10.82;80.44
23473;BME280;11909;52.516;13.564;2023-03-20T10:50:50;101144.06;;;10.73;80.43
23473;BME280;11909;52.516;13.564;2023-03-20T10:53:25;101145.47;;;10.76;81.42
23473;BME280;11909;52.516;13.564;2023-03-20T10:55:57;101146.56;;;10.80;79.93
23473;BME280;11909;52.516;13.564;2023-03-20T10:58:31;101135.56;;;10.80;81.01
23473;BME280;11909;52.516;13.564;2023-03-20T11:01:00;101135.28;;;10.71;81.58
23473;BME280;11909;52.516;13.564;2023-03-20T11:03:30;101135.28;;;10.71;80.91
23473;BME280;11909;52.516;13.564;2023-03-20T11:06:00;101138.03;;;10.71;81.76
23473;BME280;11909;52.516;13.564;2023-03-20T11:08:38;101130.09;;;10.80;80.42
23473;BME280;11909;52.516;13.564;2023-03-20T11:11:07;101136.13;;;10.87;80.67
23473;BME280;11909;52.516;13.564;2023-03-20T11:13:40;101134.19;;;10.83;81.30
23473;BME280;11909;52.516;13.564;2023-03-20T11:16:16;101131.44;;;10.83;80.96
23473;BME280;11909;52.516;13.564;2023-03-20T11:18:45;101141.91;;;10.96;78.50
23473;BME280;11909;52.516;13.564;2023-03-20T11:21:18;101137.22;;;10.86;79.19
23473;BME280;11909;52.516;13.564;2023-03-20T11:23:47;101141.91;;;10.86;79.02
23473;BME280;11909;52.516;13.564;2023-03-20T11:26:16;101135.84;;;10.84;79.00
23473;BME280;11909;52.516;13.564;2023-03-20T11:28:52;101139.69;;;10.98;77.77
23473;BME280;11909;52.516;13.564;2023-03-20T11:31:24;101137.78;;;10.99;78.38
23473;BME280;11909;52.516;13.564;2023-03-20T11:34:08;101144.13;;;11.10;75.71
23473;BME280;11909;52.516;13.564;2023-03-20T11:36:37;101143.00;;;11.00;77.61
23473;BME280;11909;52.516;13.564;2023-03-20T11:39:11;101145.47;;;11.12;75.78
23473;BME280;11909;52.516;13.564;2023-03-20T11:41:41;101139.44;;;11.00;76.57
23473;BME280;11909;52.516;13.564;2023-03-20T11:44:25;101141.91;;;11.12;76.58
23473;BME280;11909;52.516;13.564;2023-03-20T11:46:55;101135.88;;;11.10;76.11
23473;BME280;11909;52.516;13.564;2023-03-20T11:49:24;101132.00;;;11.00;76.50
23473;BME280;11909;52.516;13.564;2023-03-20T11:51:55;101125.97;;;11.03;76.09
23473;BME280;11909;52.516;13.564;2023-03-20T11:54:25;101124.34;;;11.08;76.20
23473;BME280;11909;52.516;13.564;2023-03-20T11:56:55;101116.09;;;10.97;77.72
23473;BME280;11909;52.516;13.564;2023-03-20T11:59:29;101112.78;;;11.05;78.50
23473;BME280;11909;52.516;13.564;2023-03-20T12:01:59;101109.78;;;11.23;76.08
23473;BME280;11909;52.516;13.564;2023-03-20T12:04:30;101108.94;;;11.32;74.82
23473;BME280;11909;52.516;13.564;2023-03-20T12:07:00;101116.34;;;11.32;74.66
23473;BME280;11909;52.516;13.564;2023-03-20T12:09:36;101113.34;;;11.18;74.46
23473;BME280;11909;52.516;13.564;2023-03-20T12:12:12;101107.84;;;11.18;74.77
23473;BME280;11909;52.516;13.564;2023-03-20T12:14:46;101101.78;;;11.05;77.08
23473;BME280;11909;52.516;13.564;2023-03-20T12:17:28;101101.00;;;11.00;76.47
23473;BME280;11909;52.516;13.564;2023-03-20T12:20:01;101099.59;;;11.02;76.68
23473;BME280;11909;52.516;13.564;2023-03-20T12:22:33;101096.59;;;11.09;75.83
23473;BME280;11909;52.516;13.564;2023-03-20T12:25:11;101087.81;;;11.02;77.30
23473;BME280;11909;52.516;13.564;2023-03-20T12:27:43;101099.03;;;11.05;76.41
23473;BME280;11909;52.516;13.564;2023-03-20T12:30:19;101096.59;;;11.19;74.00
23473;BME280;11909;52.516;13.564;2023-03-20T12:32:53;101107.31;;;11.16;73.74
23473;BME280;11909;52.516;13.564;2023-03-20T12:35:27;101088.91;;;11.11;73.90
23473;BME280;11909;52.516;13.564;2023-03-20T12:37:55;101096.56;;;11.14;73.01
23473;BME280;11909;52.516;13.564;2023-03-20T12:40:27;101092.75;;;11.10;72.84
23473;BME280;11909;52.516;13.564;2023-03-20T12:43:03;101091.91;;;11.15;72.64
23473;BME280;11909;52.516;13.564;2023-03-20T12:45:37;101088.34;;;11.04;74.02
23473;BME280;11909;52.516;13.564;2023-03-20T12:48:33;101086.41;;;11.04;74.30
23473;BME280;11909;52.516;13.564;2023-03-20T12:51:07;101076.81;;;11.02;74.06
23473;BME280;11909;52.516;13.564;2023-03-20T12:53:46;101087.25;;;11.10;74.33
23473;BME280;11909;52.516;13.564;2023-03-20T12:56:40;101089.16;;;11.04;74.28
23473;BME280;11909;52.516;13.564;2023-03-20T12:59:19;101090.28;;;11.09;73.21
23473;BME280;11909;52.516;13.564;2023-03-20T13:01:53;101075.19;;;11.01;73.54
23473;BME280;11909;52.516;13.564;2023-03-20T13:04:39;101077.38;;;11.04;73.97